createdAt,value
2019-03-06T00:00:03.009Z,1016.2
2019-03-06T00:01:03.853Z,1016.2
2019-03-06T00:02:04.159Z,1016.2
2019-03-06T00:03:03.503Z,1016.3
2019-03-06T00:04:02.881Z,1016.2
2019-03-06T00:05:04.178Z,1016.2
2019-03-06T00:06:03.127Z,1016.2
2019-03-06T00:07:03.843Z,1016.2
2019-03-06T00:08:04.114Z,1016.3
2019-03-06T00:09:03.857Z,1016.3
2019-03-06T00:10:03.871Z,1016.3
2019-03-06T00:11:05.247Z,1016.3
2019-03-06T00:12:03.830Z,1016.3
2019-03-06T00:13:03.758Z,1016.3
2019-03-06T00:14:03.388Z,1016.2
2019-03-06T00:15:03.332Z,1016.3
2019-03-06T00:16:03.092Z,1016.2
2019-03-06T00:17:03.261Z,1016.3
2019-03-06T00:18:02.924Z,1016.3
2019-03-06T00:19:04.003Z,1016.2
2019-03-06T00:20:05.410Z,1016.2
2019-03-06T00:21:03.351Z,1016.2
2019-03-06T00:22:02.836Z,1016.3
2019-03-06T00:23:03.280Z,1016.2
2019-03-06T00:24:02.975Z,1016.3
2019-03-06T00:25:03.371Z,1016.3
2019-03-06T00:26:02.948Z,1016.3
2019-03-06T00:27:03.081Z,1016.3
2019-03-06T00:28:03.273Z,1016.3
2019-03-06T00:29:03.271Z,1016.3
2019-03-06T00:30:03.182Z,1016.3
2019-03-06T00:31:03.972Z,1016.2
2019-03-06T00:32:02.972Z,1016.2
2019-03-06T00:33:03.152Z,1016.2
2019-03-06T00:34:02.960Z,1016.2
2019-03-06T00:35:03.800Z,1016.2
2019-03-06T00:36:03.033Z,1016.3
2019-03-06T00:37:03.932Z,1016.3
2019-03-06T00:38:03.886Z,1016.3
2019-03-06T00:39:03.826Z,1016.3
2019-03-06T00:40:04.484Z,1016.3
2019-03-06T00:41:03.808Z,1016.2
2019-03-06T00:42:03.889Z,1016.2
2019-03-06T00:43:03.793Z,1016.2
2019-03-06T00:44:03.588Z,1016.2
2019-03-06T00:45:03.664Z,1016.2
2019-03-06T00:46:04.683Z,1016.2
2019-03-06T00:47:03.580Z,1016.3
2019-03-06T00:48:03.611Z,1016.2
2019-03-06T00:49:03.267Z,1016.2
2019-03-06T00:50:03.634Z,1016.1
2019-03-06T00:51:03.353Z,1016.2
2019-03-06T00:52:03.418Z,1016.1
2019-03-06T00:53:03.615Z,1016
2019-03-06T00:54:03.629Z,1016.1
2019-03-06T00:55:04.303Z,1016.1
2019-03-06T00:56:03.456Z,1016.1
2019-03-06T00:57:03.431Z,1016.1
2019-03-06T00:58:03.200Z,1016.1
2019-03-06T00:59:03.097Z,1016.1
2019-03-06T01:00:03.436Z,1016.1
2019-03-06T01:01:03.054Z,1016.2
2019-03-06T01:02:03.235Z,1016.1
2019-03-06T01:03:03.071Z,1016.2
2019-03-06T01:04:04.676Z,1016.2
2019-03-06T01:05:04.100Z,1016.2
2019-03-06T01:06:03.020Z,1016.2
2019-03-06T01:07:02.799Z,1016.2
2019-03-06T01:08:02.807Z,1016.2
2019-03-06T01:09:03.934Z,1016.2
2019-03-06T01:10:03.873Z,1016.2
2019-03-06T01:11:03.933Z,1016.2
2019-03-06T01:12:03.906Z,1016.1
2019-03-06T01:13:05.320Z,1016.1
2019-03-06T01:14:04.346Z,1016.1
2019-03-06T01:15:03.734Z,1016.1
2019-03-06T01:16:03.951Z,1016.2
2019-03-06T01:17:04.105Z,1016.1
2019-03-06T01:18:03.963Z,1016.1
2019-03-06T01:19:03.748Z,1016.1
2019-03-06T01:20:03.567Z,1016.1
2019-03-06T01:21:03.727Z,1016.1
2019-03-06T01:22:03.686Z,1016.1
2019-03-06T01:23:03.620Z,1016
2019-03-06T01:24:03.736Z,1016
2019-03-06T01:25:03.681Z,1016
2019-03-06T01:26:03.520Z,1015.9
2019-03-06T01:27:03.601Z,1016.1
2019-03-06T01:28:03.650Z,1016
2019-03-06T01:29:03.740Z,1015.9
2019-03-06T01:30:03.978Z,1015.9
2019-03-06T01:31:03.545Z,1015.8
2019-03-06T01:32:03.330Z,1015.8
2019-03-06T01:33:03.300Z,1015.8
2019-03-06T01:34:03.292Z,1015.9
2019-03-06T01:35:03.244Z,1015.9
2019-03-06T01:36:03.635Z,1015.8
2019-03-06T01:37:03.531Z,1015.8
2019-03-06T01:38:03.418Z,1015.8
2019-03-06T01:39:03.678Z,1015.9
2019-03-06T01:40:03.621Z,1015.9
2019-03-06T01:41:03.282Z,1015.9
2019-03-06T01:42:03.058Z,1015.9
2019-03-06T01:43:03.299Z,1015.8
2019-03-06T01:44:03.252Z,1015.8
2019-03-06T01:45:03.304Z,1015.8
2019-03-06T01:46:04.085Z,1015.7
2019-03-06T01:47:03.089Z,1015.7
2019-03-06T01:48:04.504Z,1015.8
2019-03-06T01:49:02.979Z,1015.7
2019-03-06T01:50:03.949Z,1015.8
2019-03-06T01:51:03.161Z,1015.8
2019-03-06T01:52:02.927Z,1015.8
2019-03-06T01:53:02.814Z,1015.7
2019-03-06T01:54:03.148Z,1015.8
2019-03-06T01:55:02.953Z,1015.7
2019-03-06T01:56:02.994Z,1015.7
2019-03-06T01:57:04.261Z,1015.7
2019-03-06T01:58:03.950Z,1015.7
2019-03-06T01:59:03.064Z,1015.7
2019-03-06T02:00:02.999Z,1015.8
2019-03-06T02:01:03.775Z,1015.8
2019-03-06T02:02:03.828Z,1015.7
2019-03-06T02:03:03.614Z,1015.7
2019-03-06T02:04:03.852Z,1015.8
2019-03-06T02:05:03.743Z,1015.8
2019-03-06T02:06:05.340Z,1015.7
2019-03-06T02:07:03.657Z,1015.7
2019-03-06T02:08:03.735Z,1015.7
2019-03-06T02:09:03.605Z,1015.7
2019-03-06T02:10:03.592Z,1015.6
2019-03-06T02:11:03.592Z,1015.6
2019-03-06T02:12:03.640Z,1015.6
2019-03-06T02:13:03.647Z,1015.6
2019-03-06T02:14:03.308Z,1015.5
2019-03-06T02:15:03.410Z,1015.6
2019-03-06T02:16:03.537Z,1015.6
2019-03-06T02:17:03.592Z,1015.7
2019-03-06T02:18:03.298Z,1015.6
2019-03-06T02:19:03.497Z,1015.5
2019-03-06T02:20:03.065Z,1015.5
2019-03-06T02:21:03.305Z,1015.5
2019-03-06T02:22:03.337Z,1015.5
2019-03-06T02:23:03.482Z,1015.5
2019-03-06T02:24:03.546Z,1015.6
2019-03-06T02:25:03.436Z,1015.6
2019-03-06T02:26:03.300Z,1015.6
2019-03-06T02:27:03.455Z,1015.6
2019-03-06T02:28:03.356Z,1015.6
2019-03-06T02:29:02.907Z,1015.5
2019-03-06T02:30:02.989Z,1015.5
2019-03-06T02:31:03.129Z,1015.5
2019-03-06T02:32:04.645Z,1015.4
2019-03-06T02:33:03.180Z,1015.5
2019-03-06T02:34:03.428Z,1015.6
2019-03-06T02:35:03.274Z,1015.6
2019-03-06T02:36:03.393Z,1015.6
2019-03-06T02:37:03.269Z,1015.5
2019-03-06T02:38:04.021Z,1015.6
2019-03-06T02:39:03.256Z,1015.5
2019-03-06T02:40:04.097Z,1015.6
2019-03-06T02:41:03.855Z,1015.6
2019-03-06T02:42:03.887Z,1015.6
2019-03-06T02:43:03.164Z,1015.7
2019-03-06T02:44:03.960Z,1015.6
2019-03-06T02:45:03.094Z,1015.6
2019-03-06T02:46:03.051Z,1015.6
2019-03-06T02:47:03.050Z,1015.5
2019-03-06T02:48:03.973Z,1015.5
2019-03-06T02:49:05.330Z,1015.4
2019-03-06T02:50:03.968Z,1015.4
2019-03-06T02:51:03.755Z,1015.4
2019-03-06T02:52:03.655Z,1015.4
2019-03-06T02:53:03.517Z,1015.3
2019-03-06T02:54:03.957Z,1015.3
2019-03-06T02:55:03.721Z,1015.3
2019-03-06T02:56:03.947Z,1015.3
2019-03-06T02:57:03.574Z,1015.3
2019-03-06T02:58:03.702Z,1015.4
2019-03-06T02:59:03.611Z,1015.4
2019-03-06T03:00:03.841Z,1015.3
2019-03-06T03:01:03.389Z,1015.4
2019-03-06T03:02:03.377Z,1015.4
2019-03-06T03:03:03.076Z,1015.3
2019-03-06T03:04:03.439Z,1015.2
2019-03-06T03:05:03.318Z,1015.4
2019-03-06T03:06:04.556Z,1015.3
2019-03-06T03:07:03.656Z,1015.2
2019-03-06T03:08:02.946Z,1015.3
2019-03-06T03:09:03.369Z,1015.4
2019-03-06T03:10:03.546Z,1015.2
2019-03-06T03:11:03.431Z,1015.4
2019-03-06T03:12:03.122Z,1015.3
2019-03-06T03:13:03.092Z,1015.3
2019-03-06T03:14:03.467Z,1015.2
2019-03-06T03:15:04.400Z,1015.3
2019-03-06T03:16:03.208Z,1015.2
2019-03-06T03:17:03.182Z,1015.2
2019-03-06T03:18:03.125Z,1015.2
2019-03-06T03:19:04.063Z,1015.3
2019-03-06T03:20:03.902Z,1015.2
2019-03-06T03:21:03.943Z,1015.2
2019-03-06T03:22:03.833Z,1015.4
2019-03-06T03:23:03.805Z,1015.2
2019-03-06T03:24:03.083Z,1015.3
2019-03-06T03:25:03.645Z,1015.2
2019-03-06T03:26:04.037Z,1015.2
2019-03-06T03:27:03.853Z,1015.2
2019-03-06T03:28:04.159Z,1015.3
2019-03-06T03:29:03.844Z,1015.4
2019-03-06T03:30:03.383Z,1015.4
2019-03-06T03:31:03.693Z,1015.3
2019-03-06T03:32:05.478Z,1015.3
2019-03-06T03:33:03.475Z,1015.3
2019-03-06T03:34:03.353Z,1015.3
2019-03-06T03:35:03.796Z,1015.2
2019-03-06T03:36:03.115Z,1015.3
2019-03-06T03:37:03.581Z,1015.2
2019-03-06T03:38:03.244Z,1015.3
2019-03-06T03:39:03.262Z,1015.4
2019-03-06T03:40:03.971Z,1015.4
2019-03-06T03:41:03.548Z,1015.4
2019-03-06T03:42:03.452Z,1015.4
2019-03-06T03:43:03.018Z,1015.5
2019-03-06T03:44:03.155Z,1015.5
2019-03-06T03:45:03.315Z,1015.5
2019-03-06T03:46:03.422Z,1015.5
2019-03-06T03:47:03.153Z,1015.5
2019-03-06T03:48:03.299Z,1015.6
2019-03-06T03:49:04.695Z,1015.5
2019-03-06T03:50:04.171Z,1015.5
2019-03-06T03:51:03.168Z,1015.5
2019-03-06T03:52:03.084Z,1015.5
2019-03-06T03:53:03.191Z,1015.5
2019-03-06T03:54:03.256Z,1015.5
2019-03-06T03:55:03.124Z,1015.6
2019-03-06T03:56:03.997Z,1015.5
2019-03-06T03:57:03.795Z,1015.5
2019-03-06T03:58:02.882Z,1015.5
2019-03-06T03:59:03.561Z,1015.6
2019-03-06T04:00:03.990Z,1015.7
2019-03-06T04:01:03.057Z,1015.7
2019-03-06T04:02:03.069Z,1015.7
2019-03-06T04:03:04.129Z,1015.7
2019-03-06T04:04:03.681Z,1015.7
2019-03-06T04:05:03.315Z,1015.7
2019-03-06T04:06:05.406Z,1015.7
2019-03-06T04:07:03.898Z,1015.6
2019-03-06T04:08:03.091Z,1015.7
2019-03-06T04:09:03.140Z,1015.7
2019-03-06T04:10:03.291Z,1015.6
2019-03-06T04:11:04.006Z,1015.8
2019-03-06T04:12:03.186Z,1015.8
2019-03-06T04:13:03.047Z,1015.8
2019-03-06T04:14:04.496Z,1015.9
2019-03-06T04:15:03.731Z,1015.9
2019-03-06T04:16:03.065Z,1015.9
2019-03-06T04:17:03.765Z,1015.8
2019-03-06T04:18:03.745Z,1015.8
2019-03-06T04:19:03.901Z,1015.7
2019-03-06T04:20:03.264Z,1015.8
2019-03-06T04:21:03.932Z,1015.8
2019-03-06T04:22:03.918Z,1015.8
2019-03-06T04:23:05.364Z,1015.8
2019-03-06T04:24:03.556Z,1015.7
2019-03-06T04:25:03.708Z,1015.7
2019-03-06T04:26:03.704Z,1015.6
2019-03-06T04:27:03.698Z,1015.6
2019-03-06T04:28:03.621Z,1015.6
2019-03-06T04:29:03.801Z,1015.6
2019-03-06T04:30:03.620Z,1015.5
2019-03-06T04:31:04.423Z,1015.5
2019-03-06T04:32:03.553Z,1015.6
2019-03-06T04:33:03.542Z,1015.5
2019-03-06T04:34:03.746Z,1015.3
2019-03-06T04:35:03.732Z,1015.4
2019-03-06T04:36:03.677Z,1015.3
2019-03-06T04:37:03.374Z,1015.4
2019-03-06T04:38:03.550Z,1015.3
2019-03-06T04:39:03.266Z,1015.3
2019-03-06T04:40:04.441Z,1015.3
2019-03-06T04:41:03.308Z,1015.3
2019-03-06T04:42:03.294Z,1015.3
2019-03-06T04:43:03.285Z,1015.3
2019-03-06T04:44:03.402Z,1015.5
2019-03-06T04:45:03.623Z,1015.4
2019-03-06T04:46:03.146Z,1015.2
2019-03-06T04:47:03.238Z,1015.3
2019-03-06T04:48:03.205Z,1015.2
2019-03-06T04:49:02.745Z,1015.2
2019-03-06T04:50:04.154Z,1015.3
2019-03-06T04:51:03.215Z,1015.3
2019-03-06T04:52:04.015Z,1015.3
2019-03-06T04:53:03.657Z,1015.3
2019-03-06T04:54:03.833Z,1015.3
2019-03-06T04:55:03.137Z,1015.2
2019-03-06T04:56:03.980Z,1015.2
2019-03-06T04:57:03.919Z,1015.3
2019-03-06T04:58:03.936Z,1015
2019-03-06T04:59:03.997Z,1015.2
2019-03-06T05:00:03.913Z,1015.2
2019-03-06T05:01:03.031Z,1015.2
2019-03-06T05:02:03.056Z,1015.3
2019-03-06T05:03:03.746Z,1015.3
2019-03-06T05:04:03.087Z,1015.3
2019-03-06T05:05:03.832Z,1015.1
2019-03-06T05:06:04.982Z,1015.2
2019-03-06T05:07:03.839Z,1015.3
2019-03-06T05:08:05.911Z,1015.2
2019-03-06T05:09:03.551Z,1015.4
2019-03-06T05:10:03.305Z,1015.4
2019-03-06T05:11:03.594Z,1015.3
2019-03-06T05:12:03.612Z,1015.4
2019-03-06T05:13:03.362Z,1015.2
2019-03-06T05:14:03.268Z,1015.2
2019-03-06T05:15:04.779Z,1015.3
2019-03-06T05:16:03.361Z,1015.3
2019-03-06T05:17:03.435Z,1015.3
2019-03-06T05:18:03.228Z,1015.3
2019-03-06T05:19:03.398Z,1015.3
2019-03-06T05:20:03.241Z,1015.4
2019-03-06T05:21:03.296Z,1015.4
2019-03-06T05:22:03.233Z,1015.3
2019-03-06T05:23:04.248Z,1015.4
2019-03-06T05:24:03.288Z,1015.3
2019-03-06T05:25:03.504Z,1015.3
2019-03-06T05:26:03.265Z,1015.3
2019-03-06T05:27:03.166Z,1015.2
2019-03-06T05:28:03.131Z,1015.2
2019-03-06T05:29:03.245Z,1015.3
2019-03-06T05:30:02.820Z,1015.3
2019-03-06T05:31:03.421Z,1015.2
2019-03-06T05:32:04.457Z,1015.2
2019-03-06T05:33:02.847Z,1015.2
2019-03-06T05:34:02.816Z,1015.3
2019-03-06T05:35:03.053Z,1015.3
2019-03-06T05:36:03.979Z,1015.2
2019-03-06T05:37:03.578Z,1015.2
2019-03-06T05:38:03.945Z,1015.2
2019-03-06T05:39:03.687Z,1015.2
2019-03-06T05:40:04.022Z,1015.2
2019-03-06T05:41:04.927Z,1015.2
2019-03-06T05:42:03.668Z,1015.2
2019-03-06T05:43:03.466Z,1015.3
2019-03-06T05:44:03.352Z,1015.2
2019-03-06T05:45:03.277Z,1015.2
2019-03-06T05:46:04.124Z,1015.2
2019-03-06T05:47:03.522Z,1015.1
2019-03-06T05:48:03.160Z,1015.2
2019-03-06T05:49:03.682Z,1015.2
2019-03-06T05:50:04.727Z,1015.2
2019-03-06T05:51:03.211Z,1015.2
2019-03-06T05:52:03.072Z,1015.1
2019-03-06T05:53:03.472Z,1015.1
2019-03-06T05:54:02.860Z,1015.1
2019-03-06T05:55:02.850Z,1015.2
2019-03-06T05:56:03.107Z,1015.2
2019-03-06T05:57:03.034Z,1015.2
2019-03-06T05:58:03.082Z,1015.3
2019-03-06T05:59:04.574Z,1015.2
2019-03-06T06:00:03.113Z,1015.2
2019-03-06T06:01:04.014Z,1015.3
2019-03-06T06:02:03.148Z,1015.2
2019-03-06T06:03:03.858Z,1015.2
2019-03-06T06:04:03.140Z,1015.2
2019-03-06T06:05:04.016Z,1015.2
2019-03-06T06:06:03.240Z,1015.3
2019-03-06T06:07:03.822Z,1015.3
2019-03-06T06:08:05.826Z,1015.2
2019-03-06T06:09:02.771Z,1015.3
2019-03-06T06:10:04.369Z,1015.1
2019-03-06T06:11:03.742Z,1015.2
2019-03-06T06:12:02.979Z,1015.1
2019-03-06T06:13:03.222Z,1015.1
2019-03-06T06:14:03.466Z,1015.1
2019-03-06T06:15:03.313Z,1015.1
2019-03-06T06:16:03.277Z,1015.1
2019-03-06T06:17:03.483Z,1015
2019-03-06T06:18:03.339Z,1015.1
2019-03-06T06:19:03.190Z,1014.9
2019-03-06T06:20:03.377Z,1014.9
2019-03-06T06:21:03.546Z,1014.9
2019-03-06T06:22:03.204Z,1014.9
2019-03-06T06:23:03.294Z,1015
2019-03-06T06:24:03.333Z,1015.1
2019-03-06T06:25:04.420Z,1015
2019-03-06T06:26:03.484Z,1015
2019-03-06T06:27:03.554Z,1015
2019-03-06T06:28:03.414Z,1015
2019-03-06T06:29:03.248Z,1015
2019-03-06T06:30:03.528Z,1015
2019-03-06T06:31:03.170Z,1014.9
2019-03-06T06:32:03.021Z,1015
2019-03-06T06:33:04.091Z,1014.9
2019-03-06T06:34:04.547Z,1015
2019-03-06T06:35:03.108Z,1014.9
2019-03-06T06:36:03.044Z,1014.9
2019-03-06T06:37:02.796Z,1015
2019-03-06T06:38:03.927Z,1015
2019-03-06T06:39:03.980Z,1014.9
2019-03-06T06:40:03.577Z,1015
2019-03-06T06:41:03.120Z,1014.9
2019-03-06T06:42:03.219Z,1014.9
2019-03-06T06:43:05.280Z,1014.6
2019-03-06T06:44:03.742Z,1014.7
2019-03-06T06:45:03.800Z,1014.6
2019-03-06T06:46:03.476Z,1014.7
2019-03-06T06:47:03.916Z,1014.6
2019-03-06T06:48:03.422Z,1014.7
2019-03-06T06:49:03.978Z,1014.6
2019-03-06T06:50:03.567Z,1014.6
2019-03-06T06:51:03.807Z,1014.5
2019-03-06T06:52:03.737Z,1014.5
2019-03-06T06:53:03.692Z,1014.5
2019-03-06T06:54:03.572Z,1014.6
2019-03-06T06:55:03.586Z,1014.6
2019-03-06T06:56:03.441Z,1014.5
2019-03-06T06:57:03.235Z,1014.4
2019-03-06T06:58:03.429Z,1014.6
2019-03-06T06:59:03.214Z,1014.5
2019-03-06T07:00:03.239Z,1014.4
2019-03-06T07:01:04.862Z,1014.4
2019-03-06T07:02:03.679Z,1014.4
2019-03-06T07:03:03.299Z,1014.4
2019-03-06T07:04:03.166Z,1014.3
2019-03-06T07:05:03.281Z,1014.3
2019-03-06T07:06:02.988Z,1014.3
2019-03-06T07:07:03.049Z,1014.3
2019-03-06T07:08:03.986Z,1014.4
2019-03-06T07:09:03.832Z,1014.1
2019-03-06T07:10:05.291Z,1014
2019-03-06T07:11:03.945Z,1014
2019-03-06T07:12:03.972Z,1014.1
2019-03-06T07:13:03.085Z,1014.1
2019-03-06T07:14:03.928Z,1014.1
2019-03-06T07:15:03.076Z,1014.1
2019-03-06T07:16:02.880Z,1014.1
2019-03-06T07:17:03.868Z,1014.1
2019-03-06T07:18:03.641Z,1014
2019-03-06T07:19:05.239Z,1014
2019-03-06T07:20:03.951Z,1014
2019-03-06T07:21:03.811Z,1013.9
2019-03-06T07:22:03.760Z,1013.8
2019-03-06T07:23:03.666Z,1013.8
2019-03-06T07:24:03.861Z,1013.8
2019-03-06T07:25:03.712Z,1014
2019-03-06T07:26:03.698Z,1013.7
2019-03-06T07:27:03.507Z,1013.9
2019-03-06T07:28:05.282Z,1013.9
2019-03-06T07:29:03.553Z,1013.8
2019-03-06T07:30:03.342Z,1013.9
2019-03-06T07:31:03.548Z,1013.8
2019-03-06T07:32:03.447Z,1013.8
2019-03-06T07:33:03.629Z,1013.8
2019-03-06T07:34:03.322Z,1013.8
2019-03-06T07:35:03.585Z,1013.8
2019-03-06T07:36:03.484Z,1013.9
2019-03-06T07:37:04.634Z,1013.9
2019-03-06T07:38:03.288Z,1013.8
2019-03-06T07:39:03.410Z,1013.6
2019-03-06T07:40:03.233Z,1013.6
2019-03-06T07:41:03.235Z,1013.5
2019-03-06T07:42:03.249Z,1013.6
2019-03-06T07:43:03.214Z,1013.4
2019-03-06T07:44:03.069Z,1013.3
2019-03-06T07:45:03.884Z,1013.3
2019-03-06T07:46:06.237Z,1013.3
2019-03-06T07:47:03.028Z,1013.3
2019-03-06T07:48:03.228Z,1013.2
2019-03-06T07:49:03.849Z,1013.3
2019-03-06T07:50:03.462Z,1013.3
2019-03-06T07:51:03.237Z,1013.3
2019-03-06T07:52:03.647Z,1013.2
2019-03-06T07:53:03.261Z,1013.2
2019-03-06T07:54:03.660Z,1013.1
2019-03-06T07:55:03.584Z,1013.1
2019-03-06T07:56:03.440Z,1013.1
2019-03-06T07:57:03.525Z,1013.1
2019-03-06T07:58:03.538Z,1013.2
2019-03-06T07:59:03.193Z,1013.1
2019-03-06T08:00:03.438Z,1013.1
2019-03-06T08:01:03.756Z,1013.2
2019-03-06T08:02:03.455Z,1013.1
2019-03-06T08:03:03.538Z,1012.9
2019-03-06T08:04:03.448Z,1012.8
2019-03-06T08:05:04.874Z,1012.9
2019-03-06T08:06:03.418Z,1012.9
2019-03-06T08:07:03.396Z,1012.9
2019-03-06T08:08:03.298Z,1012.9
2019-03-06T08:09:03.343Z,1012.9
2019-03-06T08:10:03.501Z,1012.8
2019-03-06T08:11:02.964Z,1012.8
2019-03-06T08:12:03.847Z,1012.7
2019-03-06T08:13:03.903Z,1012.7
2019-03-06T08:14:05.079Z,1012.7
2019-03-06T08:15:03.817Z,1012.6
2019-03-06T08:16:03.900Z,1012.6
2019-03-06T08:17:03.844Z,1012.7
2019-03-06T08:18:03.298Z,1012.6
2019-03-06T08:19:03.939Z,1012.6
2019-03-06T08:20:03.976Z,1012.5
2019-03-06T08:21:03.754Z,1012.6
2019-03-06T08:22:03.771Z,1012.6
2019-03-06T08:23:05.319Z,1012.6
2019-03-06T08:24:03.240Z,1012.3
2019-03-06T08:25:03.927Z,1012.5
2019-03-06T08:26:03.949Z,1012.5
2019-03-06T08:27:03.478Z,1012.4
2019-03-06T08:28:03.349Z,1012.5
2019-03-06T08:29:03.607Z,1012.3
2019-03-06T08:30:03.312Z,1012.3
2019-03-06T08:31:03.112Z,1012.3
2019-03-06T08:32:04.923Z,1012.3
2019-03-06T08:33:03.303Z,1012.4
2019-03-06T08:34:03.210Z,1012.2
2019-03-06T08:35:03.227Z,1012.2
2019-03-06T08:36:03.117Z,1012.2
2019-03-06T08:37:03.176Z,1012.2
2019-03-06T08:38:02.998Z,1012.2
2019-03-06T08:39:03.084Z,1012
2019-03-06T08:40:03.646Z,1012.1
2019-03-06T08:41:08.701Z,1012.1
2019-03-06T08:42:03.940Z,1012.1
2019-03-06T08:43:03.588Z,1011.9
2019-03-06T08:44:03.974Z,1011.9
2019-03-06T08:45:03.899Z,1011.8
2019-03-06T08:46:03.908Z,1011.9
2019-03-06T08:47:03.697Z,1011.9
2019-03-06T08:48:03.851Z,1011.9
2019-03-06T08:49:03.850Z,1011.9
2019-03-06T08:50:03.733Z,1011.8
2019-03-06T08:51:03.761Z,1011.8
2019-03-06T08:52:03.448Z,1011.8
2019-03-06T08:53:03.469Z,1011.8
2019-03-06T08:54:03.481Z,1011.8
2019-03-06T08:55:03.379Z,1011.8
2019-03-06T08:56:03.409Z,1011.8
2019-03-06T08:57:03.608Z,1011.8
2019-03-06T08:58:03.570Z,1011.8
2019-03-06T08:59:04.183Z,1011.9
2019-03-06T09:00:03.104Z,1011.9
2019-03-06T09:01:03.208Z,1011.8
2019-03-06T09:02:03.883Z,1011.9
2019-03-06T09:03:03.460Z,1011.8
2019-03-06T09:04:03.212Z,1011.8
2019-03-06T09:05:03.955Z,1011.8
2019-03-06T09:06:03.550Z,1011.7
2019-03-06T09:07:04.044Z,1011.7
2019-03-06T09:08:03.203Z,1011.8
2019-03-06T09:09:03.141Z,1011.7
2019-03-06T09:10:03.122Z,1011.6
2019-03-06T09:11:04.031Z,1011.5
2019-03-06T09:12:03.058Z,1011.6
2019-03-06T09:13:03.051Z,1011.6
2019-03-06T09:14:03.781Z,1011.6
2019-03-06T09:15:03.627Z,1011.6
2019-03-06T09:16:04.073Z,1011.6
2019-03-06T09:17:07.149Z,1011.6
2019-03-06T09:18:09.848Z,1011.6
2019-03-06T09:19:03.621Z,1011.6
2019-03-06T09:20:03.979Z,1011.6
2019-03-06T09:21:03.718Z,1011.5
2019-03-06T09:22:03.635Z,1011.5
2019-03-06T09:23:03.799Z,1011.5
2019-03-06T09:24:03.622Z,1011.6
2019-03-06T09:25:03.780Z,1011.6
2019-03-06T09:26:05.962Z,1011.4
2019-03-06T09:27:03.507Z,1011.5
2019-03-06T09:28:03.445Z,1011.4
2019-03-06T09:29:03.966Z,1011.3
2019-03-06T09:30:03.533Z,1011.4
2019-03-06T09:31:03.522Z,1011.3
2019-03-06T09:32:03.438Z,1011.3
2019-03-06T09:33:03.412Z,1011.3
2019-03-06T09:34:03.346Z,1011.3
2019-03-06T09:35:03.090Z,1011.3
2019-03-06T09:36:03.294Z,1011.1
2019-03-06T09:37:04.074Z,1011.1
2019-03-06T09:38:11.738Z,1011.1
2019-03-06T09:39:03.120Z,1011.1
2019-03-06T09:40:03.223Z,1011
2019-03-06T09:41:03.790Z,1011.1
2019-03-06T09:42:03.466Z,1011.1
2019-03-06T09:43:04.363Z,1011
2019-03-06T09:44:03.733Z,1011.1
2019-03-06T09:45:03.815Z,1011
2019-03-06T09:46:03.620Z,1010.9
2019-03-06T09:47:03.922Z,1010.9
2019-03-06T09:48:03.596Z,1010.8
2019-03-06T09:49:12.284Z,1010.9
2019-03-06T09:50:03.864Z,1010.9
2019-03-06T09:51:03.100Z,1010.9
2019-03-06T09:52:04.993Z,1010.8
2019-03-06T09:53:03.662Z,1010.9
2019-03-06T09:54:03.473Z,1010.8
2019-03-06T09:55:03.597Z,1010.8
2019-03-06T09:56:03.748Z,1010.9
2019-03-06T09:57:03.435Z,1011
2019-03-06T09:58:03.544Z,1010.9
2019-03-06T09:59:03.468Z,1010.9
2019-03-06T10:00:03.685Z,1010.9
2019-03-06T10:01:05.253Z,1010.8
2019-03-06T10:02:07.641Z,1010.8
2019-03-06T10:03:03.318Z,1010.8
2019-03-06T10:04:03.483Z,1010.8
2019-03-06T10:05:03.375Z,1010.8
2019-03-06T10:06:03.163Z,1010.7
2019-03-06T10:07:03.295Z,1010.7
2019-03-06T10:08:03.187Z,1010.7
2019-03-06T10:09:02.892Z,1010.7
2019-03-06T10:10:05.738Z,1010.7
2019-03-06T10:11:02.839Z,1010.6
2019-03-06T10:12:03.566Z,1010.5
2019-03-06T10:13:04.032Z,1010.5
2019-03-06T10:14:03.990Z,1010.5
2019-03-06T10:15:03.050Z,1010.6
2019-03-06T10:16:03.623Z,1010.5
2019-03-06T10:17:03.656Z,1010.5
2019-03-06T10:18:03.807Z,1010.5
2019-03-06T10:19:03.839Z,1010.3
2019-03-06T10:20:03.957Z,1010.3
2019-03-06T10:21:02.953Z,1010.3
2019-03-06T10:22:04.026Z,1010.3
2019-03-06T10:23:03.639Z,1010.3
2019-03-06T10:24:03.711Z,1010.3
2019-03-06T10:25:03.439Z,1010.4
2019-03-06T10:26:03.635Z,1010.3
2019-03-06T10:27:05.404Z,1010.4
2019-03-06T10:28:07.375Z,1010.3
2019-03-06T10:29:03.679Z,1010.3
2019-03-06T10:30:03.507Z,1010.3
2019-03-06T10:31:03.614Z,1010.1
2019-03-06T10:32:05.333Z,1010.2
2019-03-06T10:33:03.610Z,1010.1
2019-03-06T10:34:03.285Z,1010.1
2019-03-06T10:35:03.663Z,1010
2019-03-06T10:36:03.229Z,1010
2019-03-06T10:38:03.402Z,1010.1
2019-03-06T10:39:03.901Z,1010.1
2019-03-06T10:40:03.564Z,1010.2
2019-03-06T10:41:03.772Z,1010.1
2019-03-06T10:42:03.445Z,1010.2
2019-03-06T10:43:03.621Z,1010.2
2019-03-06T10:44:03.663Z,1010.2
2019-03-06T10:45:03.379Z,1010.2
2019-03-06T10:46:03.618Z,1010.2
2019-03-06T10:47:04.350Z,1010.1
2019-03-06T10:48:03.309Z,1010.1
2019-03-06T10:49:03.376Z,1010
2019-03-06T10:50:03.250Z,1009.9
2019-03-06T10:51:03.231Z,1010.1
2019-03-06T10:52:04.875Z,1010.1
2019-03-06T10:53:03.261Z,1010.1
2019-03-06T10:54:03.156Z,1010
2019-03-06T10:55:03.544Z,1009.9
2019-03-06T10:56:04.161Z,1009.9
2019-03-06T10:57:05.374Z,1009.9
2019-03-06T10:58:04.164Z,1009.8
2019-03-06T10:59:03.345Z,1009.8
2019-03-06T11:00:03.928Z,1009.7
2019-03-06T11:01:03.940Z,1009.8
2019-03-06T11:02:05.293Z,1009.7
2019-03-06T11:03:04.103Z,1009.7
2019-03-06T11:04:03.721Z,1009.7
2019-03-06T11:05:03.906Z,1009.5
2019-03-06T11:06:03.842Z,1009.5
2019-03-06T11:07:05.150Z,1009.4
2019-03-06T11:08:04.122Z,1009.4
2019-03-06T11:09:03.754Z,1009.2
2019-03-06T11:10:04.098Z,1009.3
2019-03-06T11:11:03.737Z,1009.3
2019-03-06T11:12:04.899Z,1009.2
2019-03-06T11:13:03.482Z,1009.2
2019-03-06T11:14:06.948Z,1009.2
2019-03-06T11:15:03.855Z,1009.3
2019-03-06T11:16:03.546Z,1009.3
2019-03-06T11:17:05.014Z,1009.3
2019-03-06T11:18:04.528Z,1009.3
2019-03-06T11:19:03.547Z,1009.3
2019-03-06T11:20:03.730Z,1009.4
2019-03-06T11:21:03.259Z,1009.3
2019-03-06T11:22:03.392Z,1009.4
2019-03-06T11:23:03.129Z,1009.3
2019-03-06T11:24:03.312Z,1009.3
2019-03-06T11:25:03.565Z,1009.2
2019-03-06T11:26:03.460Z,1009.2
2019-03-06T11:27:03.142Z,1009.1
2019-03-06T11:28:03.861Z,1009.1
2019-03-06T11:29:03.372Z,1009.2
2019-03-06T11:30:04.113Z,1009.1
2019-03-06T11:31:03.039Z,1009.2
2019-03-06T11:32:04.104Z,1009.1
2019-03-06T11:33:03.284Z,1009
2019-03-06T11:34:03.486Z,1009.1
2019-03-06T11:35:04.177Z,1009.2
2019-03-06T11:36:03.297Z,1009.1
2019-03-06T11:37:03.887Z,1009
2019-03-06T11:38:05.171Z,1009
2019-03-06T11:39:03.854Z,1009
2019-03-06T11:40:04.312Z,1008.9
2019-03-06T11:41:05.610Z,1008.8
2019-03-06T11:42:03.826Z,1008.8
2019-03-06T11:43:03.647Z,1008.7
2019-03-06T11:44:03.636Z,1008.8
2019-03-06T11:45:03.549Z,1008.7
2019-03-06T11:46:03.868Z,1008.7
2019-03-06T11:47:03.507Z,1008.6
2019-03-06T11:48:03.657Z,1008.6
2019-03-06T11:49:07.085Z,1008.6
2019-03-06T11:50:04.679Z,1008.6
2019-03-06T11:51:03.826Z,1008.7
2019-03-06T11:52:03.262Z,1008.8
2019-03-06T11:53:03.740Z,1008.6
2019-03-06T11:54:03.517Z,1008.7
2019-03-06T11:55:09.990Z,1008.7
2019-03-06T11:56:03.144Z,1008.7
2019-03-06T11:57:03.376Z,1008.5
2019-03-06T11:58:03.327Z,1008.5
2019-03-06T11:59:03.621Z,1008.3
2019-03-06T12:00:03.551Z,1008.4
2019-03-06T12:01:03.811Z,1008.3
2019-03-06T12:02:03.370Z,1008.3
2019-03-06T12:03:03.290Z,1008.3
2019-03-06T12:04:02.822Z,1008.2
2019-03-06T12:05:03.352Z,1008.2
2019-03-06T12:06:03.208Z,1008.2
2019-03-06T12:07:03.202Z,1008.1
2019-03-06T12:08:03.263Z,1008.1
2019-03-06T12:09:03.812Z,1008.1
2019-03-06T12:10:03.554Z,1008
2019-03-06T12:11:03.169Z,1008.1
2019-03-06T12:12:02.807Z,1008.1
2019-03-06T12:13:04.044Z,1008.2
2019-03-06T12:14:04.082Z,1008.2
2019-03-06T12:15:04.155Z,1008
2019-03-06T12:16:03.821Z,1008.1
2019-03-06T12:17:06.080Z,1008.1
2019-03-06T12:18:03.797Z,1008
2019-03-06T12:19:04.131Z,1008
2019-03-06T12:20:08.991Z,1008.1
2019-03-06T12:21:03.885Z,1008
2019-03-06T12:22:03.863Z,1008.1
2019-03-06T12:23:03.852Z,1008.1
2019-03-06T12:24:03.789Z,1008.2
2019-03-06T12:25:03.792Z,1008.1
2019-03-06T12:26:03.553Z,1008.1
2019-03-06T12:27:03.289Z,1008
2019-03-06T12:28:03.639Z,1008.1
2019-03-06T12:29:03.562Z,1008.1
2019-03-06T12:30:03.610Z,1008.2
2019-03-06T12:31:03.681Z,1008.1
2019-03-06T12:32:03.533Z,1008.1